Time;durP1;ratioP1;P1;durP2;ratioP2;P2;SDS_P1;SDS_P2;PMS_P1;PMS_P2;Temp;Humidity;BMP_temperature;BMP_pressure;BME280_temperature;BME280_humidity;BME280_pressure;Samples;Min_cycle;Max_cycle;Signal;HPM_P1;HPM_P2
2021/08/06 00:00:07;;;;;;;2.58;1.58;;;;;;;;;;4879324;29;20063;-50
2021/08/06 00:02:35;;;;;;;2.03;1.30;;;;;;;;;;4879186;29;20423;-47
2021/08/06 00:05:03;;;;;;;3.42;1.63;;;;;;;;;;4878736;29;20076;-49
2021/08/06 00:07:30;;;;;;;1.77;1.50;;;;;;;;;;4879236;29;20037;-46
2021/08/06 00:09:56;;;;;;;1.30;1.20;;;;;;;;;;4879424;29;20051;-51
2021/08/06 00:12:23;;;;;;;2.30;1.58;;;;;;;;;;4878985;29;20075;-47
2021/08/06 00:14:50;;;;;;;2.75;1.40;;;;;;;;;;4877543;29;20120;-49
2021/08/06 00:17:17;;;;;;;4.22;1.73;;;;;;;;;;4879033;29;20048;-49
2021/08/06 00:19:44;;;;;;;1.70;1.35;;;;;;;;;;4879153;29;20060;-47
2021/08/06 00:22:10;;;;;;;2.22;1.30;;;;;;;;;;4878945;29;20495;-48
2021/08/06 00:24:37;;;;;;;2.28;1.73;;;;;;;;;;4878524;29;20045;-48
2021/08/06 00:27:04;;;;;;;3.83;1.60;;;;;;;;;;4879236;29;20467;-45
2021/08/06 00:29:31;;;;;;;2.08;1.35;;;;;;;;;;4878132;29;20093;-46
2021/08/06 00:31:58;;;;;;;2.38;1.48;;;;;;;;;;4879226;29;20132;-47
2021/08/06 00:34:24;;;;;;;1.70;1.27;;;;;;;;;;4877524;29;20045;-46
2021/08/06 00:36:52;;;;;;;2.65;1.30;;;;;;;;;;4878967;29;20048;-48
2021/08/06 00:39:21;;;;;;;2.53;1.60;;;;;;;;;;4877786;29;20537;-47
2021/08/06 00:41:48;;;;;;;1.73;1.20;;;;;;;;;;4877299;29;20072;-48
2021/08/06 00:44:18;;;;;;;1.48;1.23;;;;;;;;;;4877143;29;20059;-50
2021/08/06 00:46:47;;;;;;;2.15;1.52;;;;;;;;;;4884086;29;20509;-47
2021/08/06 00:49:14;;;;;;;3.30;1.50;;;;;;;;;;4877512;29;20049;-49
2021/08/06 00:51:47;;;;;;;3.08;1.50;;;;;;;;;;4892987;29;20128;-48
2021/08/06 00:54:15;;;;;;;3.15;1.60;;;;;;;;;;4876483;29;20042;-49
2021/08/06 00:57:02;;;;;;;1.92;1.40;;;;;;;;;;4878386;29;20057;-48
2021/08/06 00:59:29;;;;;;;2.78;1.70;;;;;;;;;;4878349;29;20493;-47
2021/08/06 01:02:04;;;;;;;3.05;1.75;;;;;;;;;;4877268;29;20041;-46
2021/08/06 01:04:54;;;;;;;2.45;1.80;;;;;;;;;;4877759;29;20597;-47
2021/08/06 01:07:29;;;;;;;2.63;1.63;;;;;;;;;;4860735;29;20057;-49
2021/08/06 01:10:03;;;;;;;1.90;1.63;;;;;;;;;;4876600;29;20057;-51
2021/08/06 01:12:44;;;;;;;1.98;1.40;;;;;;;;;;4884064;29;20045;-52
2021/08/06 01:15:12;;;;;;;2.42;1.77;;;;;;;;;;4877694;29;20049;-48
2021/08/06 01:17:41;;;;;;;3.53;1.77;;;;;;;;;;4877926;29;20443;-51
2021/08/06 01:20:23;;;;;;;2.60;1.73;;;;;;;;;;4861335;29;20136;-51
2021/08/06 01:23:00;;;;;;;2.78;1.70;;;;;;;;;;4861348;29;20464;-51
2021/08/06 01:25:45;;;;;;;2.78;1.50;;;;;;;;;;4876367;29;20056;-46
2021/08/06 01:28:18;;;;;;;1.73;1.25;;;;;;;;;;4876812;29;20049;-49
2021/08/06 01:30:45;;;;;;;2.90;1.58;;;;;;;;;;4876835;29;20053;-47
2021/08/06 01:33:13;;;;;;;2.05;1.55;;;;;;;;;;4876519;29;20047;-47
2021/08/06 01:35:40;;;;;;;3.22;1.83;;;;;;;;;;4877200;29;20041;-48
2021/08/06 01:38:08;;;;;;;3.25;1.30;;;;;;;;;;4876570;29;20045;-48
2021/08/06 01:40:55;;;;;;;3.00;1.55;;;;;;;;;;4876481;29;20045;-47
2021/08/06 01:43:31;;;;;;;3.38;1.60;;;;;;;;;;4876494;29;20171;-47
2021/08/06 01:46:02;;;;;;;3.28;1.50;;;;;;;;;;4877067;29;20068;-47
2021/08/06 01:48:31;;;;;;;2.40;1.27;;;;;;;;;;4876710;29;20135;-47
2021/08/06 01:50:58;;;;;;;2.53;1.48;;;;;;;;;;4876573;29;20476;-51
2021/08/06 01:53:25;;;;;;;2.47;1.50;;;;;;;;;;4877561;29;20056;-49
2021/08/06 01:56:02;;;;;;;2.72;1.40;;;;;;;;;;4878204;29;20065;-47
2021/08/06 01:58:49;;;;;;;2.08;1.48;;;;;;;;;;4876552;29;20045;-51
2021/08/06 02:01:16;;;;;;;5.05;1.92;;;;;;;;;;4876517;29;20052;-49
2021/08/06 02:03:55;;;;;;;4.25;1.70;;;;;;;;;;4876406;29;20041;-49
2021/08/06 02:06:29;;;;;;;1.88;1.40;;;;;;;;;;4877273;29;20053;-48
2021/08/06 02:09:00;;;;;;;1.65;1.35;;;;;;;;;;4876572;29;20124;-46
2021/08/06 02:11:32;;;;;;;3.80;1.77;;;;;;;;;;4876503;29;20392;-47
2021/08/06 02:14:03;;;;;;;2.67;1.67;;;;;;;;;;4876002;29;20048;-48
2021/08/06 02:16:30;;;;;;;2.58;1.58;;;;;;;;;;4875711;29;20052;-47
2021/08/06 02:19:00;;;;;;;2.40;1.70;;;;;;;;;;4876365;29;20419;-47
2021/08/06 02:21:30;;;;;;;2.30;1.60;;;;;;;;;;4876224;29;20089;-47
2021/08/06 02:24:05;;;;;;;3.15;1.40;;;;;;;;;;4879495;29;20048;-45
2021/08/06 02:26:32;;;;;;;2.47;1.50;;;;;;;;;;4885646;29;20052;-46
2021/08/06 02:29:05;;;;;;;1.42;1.25;;;;;;;;;;4879823;29;20112;-49
2021/08/06 02:31:35;;;;;;;2.42;1.67;;;;;;;;;;4879720;29;20048;-48
2021/08/06 02:34:02;;;;;;;3.28;1.90;;;;;;;;;;4878938;29;20435;-50
2021/08/06 02:36:29;;;;;;;4.47;1.58;;;;;;;;;;4879831;29;20073;-47
2021/08/06 02:38:59;;;;;;;2.47;1.80;;;;;;;;;;4879938;29;20056;-46
2021/08/06 02:41:26;;;;;;;3.15;1.98;;;;;;;;;;4880921;29;20041;-48
2021/08/06 02:43:56;;;;;;;3.67;1.80;;;;;;;;;;4880492;29;20410;-48
2021/08/06 02:46:23;;;;;;;3.05;1.52;;;;;;;;;;4879930;29;20512;-48
2021/08/06 02:48:50;;;;;;;2.15;1.60;;;;;;;;;;4879533;29;20052;-49
2021/08/06 02:51:17;;;;;;;2.53;1.63;;;;;;;;;;4879505;29;20043;-50
2021/08/06 02:53:44;;;;;;;2.75;1.98;;;;;;;;;;4880707;29;20554;-46
2021/08/06 02:56:11;;;;;;;3.33;1.77;;;;;;;;;;4878392;29;20041;-49
2021/08/06 02:58:40;;;;;;;2.38;1.80;;;;;;;;;;4879468;29;20049;-49
2021/08/06 03:01:07;;;;;;;2.72;1.70;;;;;;;;;;4880646;29;20049;-49
2021/08/06 03:03:34;;;;;;;3.10;2.03;;;;;;;;;;4879258;29;20049;-47
2021/08/06 03:06:03;;;;;;;3.03;1.92;;;;;;;;;;4878796;29;20041;-47
2021/08/06 03:08:31;;;;;;;4.30;1.80;;;;;;;;;;4879072;29;20097;-47
2021/08/06 03:10:58;;;;;;;2.38;1.83;;;;;;;;;;4863811;29;20045;-48
2021/08/06 03:13:27;;;;;;;6.10;1.60;;;;;;;;;;4889992;29;20057;-46
2021/08/06 03:15:54;;;;;;;2.63;1.50;;;;;;;;;;4879536;29;20037;-49
2021/08/06 03:18:21;;;;;;;2.80;1.85;;;;;;;;;;4880276;29;20063;-50
2021/08/06 03:20:48;;;;;;;5.57;2.10;;;;;;;;;;4863503;29;20053;-47
2021/08/06 03:23:17;;;;;;;2.60;1.75;;;;;;;;;;4879542;29;20418;-48
2021/08/06 03:25:43;;;;;;;5.00;1.67;;;;;;;;;;4878173;29;20069;-44
2021/08/06 03:28:10;;;;;;;3.10;1.63;;;;;;;;;;4880090;29;20180;-45
2021/08/06 03:30:37;;;;;;;2.03;1.52;;;;;;;;;;4878953;29;20127;-44
2021/08/06 03:33:04;;;;;;;1.58;1.20;;;;;;;;;;4863014;29;20529;-46
2021/08/06 03:35:32;;;;;;;3.53;1.17;;;;;;;;;;4877899;29;20496;-45
2021/08/06 03:37:58;;;;;;;2.58;1.30;;;;;;;;;;4878718;29;20131;-44
2021/08/06 03:40:26;;;;;;;2.00;1.48;;;;;;;;;;4878737;29;20065;-45
2021/08/06 03:42:53;;;;;;;1.55;1.20;;;;;;;;;;4879772;29;20049;-44
2021/08/06 03:45:20;;;;;;;3.38;1.52;;;;;;;;;;4879405;29;20276;-44
2021/08/06 03:47:47;;;;;;;3.45;1.45;;;;;;;;;;4892784;29;20051;-44
2021/08/06 03:50:14;;;;;;;2.13;1.35;;;;;;;;;;4879658;29;20041;-44
2021/08/06 03:52:42;;;;;;;2.45;1.20;;;;;;;;;;4878492;29;20044;-45
2021/08/06 03:55:09;;;;;;;1.98;1.42;;;;;;;;;;4878021;29;20117;-49
2021/08/06 03:57:47;;;;;;;1.63;1.20;;;;;;;;;;4862905;29;20049;-47
2021/08/06 04:00:15;;;;;;;1.88;1.38;;;;;;;;;;4878484;29;20124;-44
2021/08/06 04:02:43;;;;;;;3.22;1.20;;;;;;;;;;4879347;29;20104;-46
2021/08/06 04:05:11;;;;;;;1.90;1.30;;;;;;;;;;4889422;29;20388;-45
2021/08/06 04:07:45;;;;;;;2.17;1.13;;;;;;;;;;4878322;29;20093;-45
2021/08/06 04:10:17;;;;;;;2.47;1.30;;;;;;;;;;4862770;29;20052;-47
2021/08/06 04:12:46;;;;;;;5.05;1.50;;;;;;;;;;4879489;29;20101;-49
2021/08/06 04:15:13;;;;;;;2.13;1.48;;;;;;;;;;4891156;29;20049;-46
2021/08/06 04:17:40;;;;;;;2.40;1.45;;;;;;;;;;4875791;29;20084;-47
2021/08/06 04:20:07;;;;;;;1.75;1.27;;;;;;;;;;4878419;29;20478;-44
2021/08/06 04:22:34;;;;;;;2.30;1.40;;;;;;;;;;4879075;29;20080;-46
2021/08/06 04:25:01;;;;;;;1.90;1.30;;;;;;;;;;4878450;29;20045;-47
2021/08/06 04:27:28;;;;;;;2.30;1.48;;;;;;;;;;4877792;29;20049;-45
2021/08/06 04:29:54;;;;;;;3.13;1.30;;;;;;;;;;4878417;29;20076;-45
2021/08/06 04:32:21;;;;;;;2.50;1.40;;;;;;;;;;4877502;29;20464;-44
2021/08/06 04:34:48;;;;;;;2.17;1.20;;;;;;;;;;4878285;29;20053;-45
2021/08/06 04:37:15;;;;;;;1.80;1.30;;;;;;;;;;4878895;29;20598;-50
2021/08/06 04:39:42;;;;;;;2.22;1.33;;;;;;;;;;4877775;29;20055;-44
2021/08/06 04:42:08;;;;;;;3.40;1.50;;;;;;;;;;4878633;29;20052;-45
2021/08/06 04:44:36;;;;;;;2.00;1.27;;;;;;;;;;4877387;29;20073;-45
2021/08/06 04:47:03;;;;;;;2.15;1.23;;;;;;;;;;4877729;29;20049;-47
2021/08/06 04:49:30;;;;;;;2.45;1.50;;;;;;;;;;4877600;29;20044;-47
2021/08/06 04:51:57;;;;;;;4.05;1.67;;;;;;;;;;4878754;29;20049;-46
2021/08/06 04:54:24;;;;;;;3.28;1.50;;;;;;;;;;4876785;29;20167;-44
2021/08/06 04:56:51;;;;;;;5.15;1.60;;;;;;;;;;4877214;29;20045;-47
2021/08/06 04:59:18;;;;;;;3.10;1.40;;;;;;;;;;4878549;29;20411;-46
2021/08/06 05:01:45;;;;;;;3.08;1.65;;;;;;;;;;4877395;29;20423;-44
2021/08/06 05:04:12;;;;;;;6.10;1.70;;;;;;;;;;4886051;29;20053;-48
2021/08/06 05:06:40;;;;;;;1.95;1.35;;;;;;;;;;4896025;29;20048;-48
2021/08/06 05:09:06;;;;;;;3.38;1.50;;;;;;;;;;4895766;29;20040;-46
2021/08/06 05:11:35;;;;;;;3.58;1.38;;;;;;;;;;4891419;29;20037;-47
2021/08/06 05:14:02;;;;;;;2.50;1.70;;;;;;;;;;4876622;29;20049;-46
2021/08/06 05:16:30;;;;;;;2.20;1.65;;;;;;;;;;4876888;29;20072;-45
2021/08/06 05:18:57;;;;;;;3.72;1.95;;;;;;;;;;4877100;29;20076;-44
2021/08/06 05:21:24;;;;;;;2.88;1.70;;;;;;;;;;4878330;29;20099;-46
2021/08/06 05:23:51;;;;;;;2.50;1.27;;;;;;;;;;4876918;29;20049;-45
2021/08/06 05:26:19;;;;;;;2.75;1.70;;;;;;;;;;4882868;29;20044;-46
2021/08/06 05:28:47;;;;;;;2.50;1.60;;;;;;;;;;4876878;29;20049;-45
2021/08/06 05:31:13;;;;;;;3.80;1.80;;;;;;;;;;4876822;29;20071;-45
2021/08/06 05:33:41;;;;;;;2.10;1.27;;;;;;;;;;4876787;29;20048;-44
2021/08/06 05:36:08;;;;;;;2.60;1.60;;;;;;;;;;4877314;29;20047;-45
2021/08/06 05:38:35;;;;;;;1.88;1.38;;;;;;;;;;4876660;29;20080;-44
2021/08/06 05:41:04;;;;;;;3.55;1.30;;;;;;;;;;4876530;29;20095;-46
2021/08/06 05:43:31;;;;;;;3.53;1.40;;;;;;;;;;4877756;29;20069;-46
2021/08/06 05:46:00;;;;;;;2.50;1.40;;;;;;;;;;4878838;29;20114;-49
2021/08/06 05:48:29;;;;;;;3.45;2.08;;;;;;;;;;4895336;29;20430;-46
2021/08/06 05:50:56;;;;;;;2.47;1.75;;;;;;;;;;4895232;29;20053;-44
2021/08/06 05:53:24;;;;;;;2.70;1.83;;;;;;;;;;4895295;29;20127;-44
2021/08/06 05:55:56;;;;;;;4.32;1.58;;;;;;;;;;4891772;29;20128;-47
2021/08/06 05:58:25;;;;;;;3.17;2.00;;;;;;;;;;4883001;29;20108;-44
2021/08/06 06:00:52;;;;;;;3.38;1.90;;;;;;;;;;4884313;29;20127;-46
2021/08/06 06:03:27;;;;;;;3.08;1.63;;;;;;;;;;4882843;29;20053;-45
2021/08/06 06:06:03;;;;;;;2.50;1.55;;;;;;;;;;4881981;29;20049;-46
2021/08/06 06:08:32;;;;;;;2.97;1.70;;;;;;;;;;4882627;29;20040;-46
2021/08/06 06:11:00;;;;;;;2.70;1.65;;;;;;;;;;4883060;29;20101;-44
2021/08/06 06:13:29;;;;;;;2.42;1.60;;;;;;;;;;4883015;29;20519;-44
2021/08/06 06:15:56;;;;;;;3.40;2.03;;;;;;;;;;4882237;29;20123;-44
2021/08/06 06:18:23;;;;;;;3.47;2.00;;;;;;;;;;4867136;29;20388;-45
2021/08/06 06:20:55;;;;;;;2.80;1.98;;;;;;;;;;4883980;29;20466;-44
2021/08/06 06:23:22;;;;;;;3.00;1.63;;;;;;;;;;4883608;29;20472;-43
2021/08/06 06:25:50;;;;;;;3.53;1.70;;;;;;;;;;4896423;29;20578;-44
2021/08/06 06:28:21;;;;;;;4.93;1.85;;;;;;;;;;4882368;29;20091;-44
2021/08/06 06:30:52;;;;;;;4.57;2.00;;;;;;;;;;4882535;29;20036;-44
2021/08/06 06:33:19;;;;;;;2.90;1.70;;;;;;;;;;4883476;29;20503;-47
2021/08/06 06:35:49;;;;;;;3.20;1.70;;;;;;;;;;4881759;29;20124;-45
2021/08/06 06:38:15;;;;;;;2.78;1.60;;;;;;;;;;4882490;29;20097;-44
2021/08/06 06:40:42;;;;;;;3.17;1.83;;;;;;;;;;4882540;29;20049;-46
2021/08/06 06:43:18;;;;;;;5.75;2.00;;;;;;;;;;4881819;29;20056;-45
2021/08/06 06:45:46;;;;;;;3.08;1.90;;;;;;;;;;4881298;29;20053;-45
2021/08/06 06:48:12;;;;;;;4.07;1.85;;;;;;;;;;4883487;29;20048;-45
2021/08/06 06:50:40;;;;;;;3.10;1.80;;;;;;;;;;4882493;29;20052;-46
2021/08/06 06:53:07;;;;;;;3.80;1.98;;;;;;;;;;4882335;29;20052;-45
2021/08/06 06:55:34;;;;;;;2.97;1.85;;;;;;;;;;4881000;29;20494;-46
2021/08/06 06:58:01;;;;;;;4.22;2.13;;;;;;;;;;4882073;29;20037;-45
2021/08/06 07:00:31;;;;;;;3.92;1.95;;;;;;;;;;4881954;29;20419;-47
2021/08/06 07:03:01;;;;;;;2.70;1.90;;;;;;;;;;4888910;29;20049;-46
2021/08/06 07:05:28;;;;;;;3.38;1.80;;;;;;;;;;4881021;29;20051;-47
2021/08/06 07:07:56;;;;;;;4.25;2.03;;;;;;;;;;4879842;29;20496;-45
2021/08/06 07:10:23;;;;;;;5.10;1.95;;;;;;;;;;4878573;29;20072;-44
2021/08/06 07:12:50;;;;;;;3.25;1.85;;;;;;;;;;4878738;29;20056;-44
2021/08/06 07:15:17;;;;;;;6.05;2.10;;;;;;;;;;4878273;29;20041;-45
2021/08/06 07:17:46;;;;;;;4.47;2.10;;;;;;;;;;4879184;29;20072;-47
2021/08/06 07:20:15;;;;;;;2.88;1.88;;;;;;;;;;4878656;29;20041;-46
2021/08/06 07:22:44;;;;;;;2.88;1.92;;;;;;;;;;4878219;29;20045;-45
2021/08/06 07:25:12;;;;;;;3.63;1.92;;;;;;;;;;4877736;29;20093;-46
2021/08/06 07:27:40;;;;;;;4.70;2.00;;;;;;;;;;4879759;29;20215;-48
2021/08/06 07:30:07;;;;;;;3.00;1.92;;;;;;;;;;4878218;29;20041;-49
2021/08/06 07:32:34;;;;;;;2.42;1.70;;;;;;;;;;4878571;29;20065;-49
2021/08/06 07:35:02;;;;;;;2.78;1.88;;;;;;;;;;4877359;29;20491;-49
2021/08/06 07:37:29;;;;;;;3.45;1.95;;;;;;;;;;4878289;29;20049;-47
2021/08/06 07:39:56;;;;;;;3.22;2.20;;;;;;;;;;4878284;29;20049;-49
2021/08/06 07:42:23;;;;;;;5.30;2.13;;;;;;;;;;4882372;29;20105;-51
2021/08/06 07:44:50;;;;;;;4.95;2.10;;;;;;;;;;4877592;29;20109;-48
2021/08/06 07:47:17;;;;;;;3.70;2.10;;;;;;;;;;4877554;29;20048;-49
2021/08/06 07:49:44;;;;;;;3.47;2.13;;;;;;;;;;4878171;29;20112;-48
2021/08/06 07:52:12;;;;;;;3.08;2.00;;;;;;;;;;4878148;29;20452;-49
2021/08/06 07:54:39;;;;;;;4.20;2.28;;;;;;;;;;4878309;29;20428;-48
2021/08/06 07:57:07;;;;;;;3.70;1.88;;;;;;;;;;4878324;29;20047;-48
2021/08/06 07:59:37;;;;;;;3.08;2.03;;;;;;;;;;4878150;29;20054;-47
2021/08/06 08:02:04;;;;;;;3.08;1.90;;;;;;;;;;4877774;29;20057;-46
2021/08/06 08:04:32;;;;;;;3.10;2.17;;;;;;;;;;4878162;29;20057;-47
2021/08/06 08:07:00;;;;;;;3.67;2.40;;;;;;;;;;4879286;29;20064;-47
2021/08/06 08:09:28;;;;;;;3.88;2.08;;;;;;;;;;4878092;29;20419;-48
2021/08/06 08:11:55;;;;;;;2.90;2.15;;;;;;;;;;4877592;29;20057;-48
2021/08/06 08:14:23;;;;;;;3.42;2.20;;;;;;;;;;4877226;29;20049;-49
2021/08/06 08:16:50;;;;;;;2.80;2.10;;;;;;;;;;4862450;29;20049;-46
2021/08/06 08:19:18;;;;;;;5.13;2.35;;;;;;;;;;4877522;29;20512;-48
2021/08/06 08:21:46;;;;;;;3.60;2.50;;;;;;;;;;4877526;29;20045;-48
2021/08/06 08:24:13;;;;;;;2.97;1.90;;;;;;;;;;4881681;29;20064;-47
2021/08/06 08:26:41;;;;;;;3.75;2.10;;;;;;;;;;4897524;29;20059;-48
2021/08/06 08:29:08;;;;;;;4.25;2.05;;;;;;;;;;4897501;29;20041;-49
2021/08/06 08:31:35;;;;;;;3.88;1.98;;;;;;;;;;4897226;29;20044;-45
2021/08/06 08:34:03;;;;;;;2.92;2.10;;;;;;;;;;4891448;29;20049;-49
2021/08/06 08:36:30;;;;;;;4.47;2.80;;;;;;;;;;4877645;29;20478;-50
2021/08/06 08:38:57;;;;;;;4.15;2.17;;;;;;;;;;4877555;29;20049;-48
2021/08/06 08:41:24;;;;;;;3.15;2.25;;;;;;;;;;4888702;29;20064;-50
2021/08/06 08:43:54;;;;;;;3.42;2.20;;;;;;;;;;4877364;29;20045;-47
2021/08/06 08:46:25;;;;;;;2.70;2.08;;;;;;;;;;4876778;29;20536;-49
2021/08/06 08:48:57;;;;;;;3.30;2.00;;;;;;;;;;4877473;29;20041;-50
2021/08/06 08:51:26;;;;;;;3.35;2.08;;;;;;;;;;4877531;29;20041;-47
2021/08/06 08:53:54;;;;;;;5.22;2.20;;;;;;;;;;4877598;29;20045;-51
2021/08/06 08:56:22;;;;;;;4.13;2.10;;;;;;;;;;4876973;29;20438;-51
2021/08/06 08:58:50;;;;;;;2.78;2.10;;;;;;;;;;4877229;29;20117;-49
2021/08/06 09:01:17;;;;;;;2.90;2.20;;;;;;;;;;4877138;29;20110;-49
2021/08/06 09:03:46;;;;;;;5.00;2.33;;;;;;;;;;4877369;29;20048;-51
2021/08/06 09:06:39;;;;;;;3.42;2.05;;;;;;;;;;4861556;29;20427;-52
2021/08/06 09:09:13;;;;;;;2.90;1.90;;;;;;;;;;4876936;29;20045;-47
2021/08/06 09:12:14;;;;;;;4.75;2.15;;;;;;;;;;4878068;29;20045;-48
2021/08/06 09:14:50;;;;;;;4.40;1.73;;;;;;;;;;4877382;29;20059;-48
2021/08/06 09:17:17;;;;;;;2.33;1.40;;;;;;;;;;4877825;29;20049;-49
2021/08/06 09:19:53;;;;;;;3.28;1.80;;;;;;;;;;4876831;29;20127;-51
2021/08/06 09:22:24;;;;;;;2.63;1.70;;;;;;;;;;4902126;23;20052;-44
2021/08/06 09:24:57;;;;;;;3.28;1.50;;;;;;;;;;4895699;29;20048;-43
2021/08/06 09:27:24;;;;;;;3.15;1.55;;;;;;;;;;4877265;29;20045;-44
2021/08/06 09:29:51;;;;;;;2.90;1.55;;;;;;;;;;4877257;29;20101;-44
2021/08/06 09:32:18;;;;;;;2.45;1.65;;;;;;;;;;4876791;29;20128;-46
2021/08/06 09:34:45;;;;;;;3.00;1.50;;;;;;;;;;4876306;29;20053;-47
2021/08/06 09:37:15;;;;;;;2.85;1.50;;;;;;;;;;4877362;29;20049;-45
2021/08/06 09:39:43;;;;;;;2.13;1.50;;;;;;;;;;4877013;29;20108;-45
2021/08/06 09:42:16;;;;;;;2.85;1.77;;;;;;;;;;4876791;29;20084;-46
2021/08/06 09:44:43;;;;;;;2.97;1.60;;;;;;;;;;4876520;29;20049;-44
2021/08/06 09:47:17;;;;;;;1.75;1.30;;;;;;;;;;4876736;29;20053;-46
2021/08/06 09:49:45;;;;;;;2.80;1.52;;;;;;;;;;4877007;29;20133;-44
2021/08/06 09:52:13;;;;;;;2.88;1.48;;;;;;;;;;4876915;29;20144;-47
2021/08/06 09:54:39;;;;;;;2.95;1.60;;;;;;;;;;4876127;29;20100;-43
2021/08/06 09:57:08;;;;;;;2.20;1.33;;;;;;;;;;4876982;29;20092;-52
2021/08/06 09:59:35;;;;;;;2.60;1.30;;;;;;;;;;4876978;29;20093;-47
2021/08/06 10:02:15;;;;;;;2.38;1.40;;;;;;;;;;4877003;29;20574;-46
2021/08/06 10:04:44;;;;;;;3.15;1.45;;;;;;;;;;4886117;29;20554;-48
2021/08/06 10:07:12;;;;;;;3.22;1.25;;;;;;;;;;4895597;29;20074;-44
2021/08/06 10:09:38;;;;;;;1.88;1.17;;;;;;;;;;4894199;29;20075;-45
2021/08/06 10:12:05;;;;;;;1.90;1.27;;;;;;;;;;4895233;29;20049;-46
2021/08/06 10:14:33;;;;;;;2.60;1.45;;;;;;;;;;4877515;29;20097;-44
2021/08/06 10:17:00;;;;;;;2.28;1.33;;;;;;;;;;4887259;29;20127;-44
2021/08/06 10:19:27;;;;;;;3.08;1.42;;;;;;;;;;4896008;29;20079;-48
2021/08/06 10:21:55;;;;;;;3.33;1.30;;;;;;;;;;4893750;29;20087;-43
2021/08/06 10:24:22;;;;;;;2.42;1.20;;;;;;;;;;4890762;29;20049;-44
2021/08/06 10:26:49;;;;;;;3.35;1.42;;;;;;;;;;4876834;29;20422;-45
2021/08/06 10:29:18;;;;;;;3.85;1.48;;;;;;;;;;4877060;29;20395;-47
2021/08/06 10:32:05;;;;;;;3.92;1.50;;;;;;;;;;4876788;29;20053;-49
2021/08/06 10:34:32;;;;;;;2.53;1.40;;;;;;;;;;4875465;29;20459;-44
2021/08/06 10:36:59;;;;;;;2.45;1.20;;;;;;;;;;4876968;29;20414;-43
2021/08/06 10:39:26;;;;;;;1.77;1.23;;;;;;;;;;4876479;29;20484;-44
2021/08/06 10:41:53;;;;;;;3.05;1.30;;;;;;;;;;4876198;29;20136;-47
2021/08/06 10:44:20;;;;;;;2.40;1.30;;;;;;;;;;4878528;29;20053;-43
2021/08/06 10:46:58;;;;;;;2.47;1.55;;;;;;;;;;4888372;29;20044;-45
2021/08/06 10:49:25;;;;;;;3.28;1.50;;;;;;;;;;4898768;29;20072;-45
2021/08/06 10:52:10;;;;;;;2.53;1.30;;;;;;;;;;4898811;29;20076;-47
2021/08/06 10:54:37;;;;;;;2.38;1.38;;;;;;;;;;4892790;29;20097;-45
2021/08/06 10:57:24;;;;;;;2.30;1.38;;;;;;;;;;4879910;29;20072;-42
2021/08/06 10:59:52;;;;;;;2.78;1.48;;;;;;;;;;4879898;29;20132;-43
2021/08/06 11:02:34;;;;;;;1.98;1.20;;;;;;;;;;4879647;29;20203;-50
2021/08/06 11:05:21;;;;;;;2.10;1.20;;;;;;;;;;4879138;29;20084;-44
2021/08/06 11:07:48;;;;;;;3.10;1.40;;;;;;;;;;4879515;29;20059;-43
2021/08/06 11:10:38;;;;;;;3.38;1.35;;;;;;;;;;4879309;29;20052;-46
2021/08/06 11:13:24;;;;;;;3.05;1.05;;;;;;;;;;4892986;29;20049;-47
2021/08/06 11:16:07;;;;;;;3.33;1.55;;;;;;;;;;4894787;29;20096;-42
2021/08/06 11:18:33;;;;;;;4.28;1.30;;;;;;;;;;4879465;29;20508;-47
2021/08/06 11:21:00;;;;;;;2.03;1.25;;;;;;;;;;4879573;29;20105;-42
2021/08/06 11:23:28;;;;;;;2.97;1.30;;;;;;;;;;4879227;29;20049;-47
2021/08/06 11:26:04;;;;;;;4.15;1.48;;;;;;;;;;4878708;29;20088;-45
2021/08/06 11:28:31;;;;;;;2.17;1.30;;;;;;;;;;4879353;29;20044;-44
2021/08/06 11:30:58;;;;;;;3.30;1.40;;;;;;;;;;4878937;29;20080;-48
2021/08/06 11:33:24;;;;;;;6.45;1.30;;;;;;;;;;4879337;29;20411;-44
2021/08/06 11:35:51;;;;;;;3.75;1.45;;;;;;;;;;4878253;29;20045;-46
2021/08/06 11:38:22;;;;;;;2.22;1.38;;;;;;;;;;4879118;29;20116;-48
2021/08/06 11:40:55;;;;;;;1.85;1.15;;;;;;;;;;4879044;29;20105;-44
2021/08/06 11:43:23;;;;;;;2.22;1.30;;;;;;;;;;4879252;29;20495;-45
2021/08/06 11:45:53;;;;;;;2.55;1.30;;;;;;;;;;4877300;29;20063;-48
2021/08/06 11:48:21;;;;;;;2.47;1.20;;;;;;;;;;4879129;29;20104;-48
2021/08/06 11:50:54;;;;;;;3.03;1.48;;;;;;;;;;4878955;29;20170;-44
2021/08/06 11:53:25;;;;;;;4.35;1.25;;;;;;;;;;4878759;29;20049;-44
2021/08/06 11:55:53;;;;;;;3.30;1.20;;;;;;;;;;4877905;29;20160;-43
2021/08/06 11:58:31;;;;;;;2.55;1.20;;;;;;;;;;4879048;29;20045;-43
2021/08/06 12:00:59;;;;;;;3.38;1.20;;;;;;;;;;4878960;29;20056;-43
2021/08/06 12:03:26;;;;;;;3.45;1.10;;;;;;;;;;4878340;29;20064;-45
2021/08/06 12:06:02;;;;;;;2.80;1.15;;;;;;;;;;4896498;29;20052;-50
2021/08/06 12:08:32;;;;;;;2.25;1.27;;;;;;;;;;4897525;29;20056;-44
2021/08/06 12:11:04;;;;;;;1.90;1.10;;;;;;;;;;4897574;29;20430;-42
2021/08/06 12:13:39;;;;;;;4.35;1.25;;;;;;;;;;4884740;29;20132;-47
2021/08/06 12:16:12;;;;;;;3.65;1.45;;;;;;;;;;4877812;29;20182;-44
2021/08/06 12:18:40;;;;;;;2.50;1.38;;;;;;;;;;4878608;29;20048;-46
2021/08/06 12:21:13;;;;;;;3.47;1.70;;;;;;;;;;4878482;29;20321;-42
2021/08/06 12:23:42;;;;;;;2.33;1.30;;;;;;;;;;4878426;29;20405;-47
2021/08/06 12:26:23;;;;;;;3.05;1.55;;;;;;;;;;4877818;29;20439;-44
2021/08/06 12:29:06;;;;;;;3.28;1.40;;;;;;;;;;4878390;29;20071;-42
2021/08/06 12:31:32;;;;;;;;;;;;;;;;;;4878905;29;20482;-43
2021/08/06 12:34:04;;;;;;;3.08;1.40;;;;;;;;;;4892091;29;19924;-53
2021/08/06 12:36:32;;;;;;;2.67;1.38;;;;;;;;;;4877988;29;20076;-43
2021/08/06 12:39:09;;;;;;;1.70;1.20;;;;;;;;;;4878305;29;20049;-43
2021/08/06 12:41:36;;;;;;;3.65;1.42;;;;;;;;;;4878087;29;20120;-48
2021/08/06 12:44:15;;;;;;;1.90;1.23;;;;;;;;;;4877091;29;20527;-44
2021/08/06 12:46:54;;;;;;;3.13;1.50;;;;;;;;;;4886213;29;20096;-47
2021/08/06 12:49:24;;;;;;;4.05;1.38;;;;;;;;;;4896748;29;20072;-50
2021/08/06 12:51:56;;;;;;;3.33;1.70;;;;;;;;;;4896719;29;20068;-49
2021/08/06 12:54:52;;;;;;;2.72;1.60;;;;;;;;;;4896275;29;20068;-44
2021/08/06 12:57:34;;;;;;;4.47;1.70;;;;;;;;;;4866931;29;20052;-44
2021/08/06 13:00:11;;;;;;;2.25;1.38;;;;;;;;;;4877888;29;20049;-46
2021/08/06 13:02:38;;;;;;;3.45;1.48;;;;;;;;;;4877958;29;20053;-45
2021/08/06 13:05:07;;;;;;;2.05;1.30;;;;;;;;;;4876638;29;20121;-47
2021/08/06 13:07:34;;;;;;;2.92;1.60;;;;;;;;;;4877543;29;20056;-49
2021/08/06 13:10:01;;;;;;;3.20;1.50;;;;;;;;;;4878007;29;20048;-45
2021/08/06 13:12:29;;;;;;;2.40;1.60;;;;;;;;;;4892462;29;20055;-45
2021/08/06 13:14:57;;;;;;;3.67;1.58;;;;;;;;;;4888082;29;20104;-45
2021/08/06 13:17:24;;;;;;;3.83;1.38;;;;;;;;;;4881403;29;20120;-45
2021/08/06 13:19:51;;;;;;;2.33;1.30;;;;;;;;;;4877663;29;20053;-45
2021/08/06 13:22:20;;;;;;;3.45;1.40;;;;;;;;;;4877252;29;20578;-47
2021/08/06 13:24:48;;;;;;;2.70;1.40;;;;;;;;;;4875626;29;20103;-44
2021/08/06 13:27:15;;;;;;;4.63;1.52;;;;;;;;;;4877467;29;20053;-46
2021/08/06 13:29:42;;;;;;;2.95;1.30;;;;;;;;;;4877493;29;20437;-44
2021/08/06 13:32:09;;;;;;;3.72;1.35;;;;;;;;;;4877396;29;20124;-49
2021/08/06 13:34:36;;;;;;;3.58;1.40;;;;;;;;;;4876502;29;20123;-43
2021/08/06 13:37:04;;;;;;;3.97;1.20;;;;;;;;;;4877307;29;20474;-46
2021/08/06 13:39:32;;;;;;;4.30;1.27;;;;;;;;;;4877228;29;20072;-45
2021/08/06 13:42:03;;;;;;;2.83;1.30;;;;;;;;;;4877008;29;20045;-47
2021/08/06 13:44:30;;;;;;;2.53;1.35;;;;;;;;;;4876294;29;20120;-47
2021/08/06 13:46:57;;;;;;;3.75;1.70;;;;;;;;;;4876964;29;20041;-46
2021/08/06 13:49:24;;;;;;;3.03;1.00;;;;;;;;;;4877087;29;20052;-45
2021/08/06 13:51:51;;;;;;;3.60;1.75;;;;;;;;;;4877123;29;20049;-45
2021/08/06 13:54:18;;;;;;;7.07;1.30;;;;;;;;;;4876684;29;20108;-44
2021/08/06 13:56:46;;;;;;;2.85;1.20;;;;;;;;;;4877465;29;20065;-43
2021/08/06 13:59:12;;;;;;;2.70;1.20;;;;;;;;;;4877096;29;20045;-44
2021/08/06 14:01:39;;;;;;;3.28;1.20;;;;;;;;;;4877026;29;20402;-46
2021/08/06 14:04:06;;;;;;;2.95;1.40;;;;;;;;;;4876409;29;20053;-45
2021/08/06 14:06:33;;;;;;;4.28;1.30;;;;;;;;;;4876917;29;20045;-50
2021/08/06 14:09:00;;;;;;;2.38;1.30;;;;;;;;;;4876923;29;20068;-47
2021/08/06 14:11:47;;;;;;;3.42;1.30;;;;;;;;;;4875264;29;20041;-46
2021/08/06 14:14:13;;;;;;;2.65;1.38;;;;;;;;;;4876299;29;20067;-45
2021/08/06 14:16:40;;;;;;;3.38;1.40;;;;;;;;;;4884880;29;20067;-43
2021/08/06 14:19:07;;;;;;;3.13;1.30;;;;;;;;;;4899301;29;20130;-45
2021/08/06 14:21:34;;;;;;;3.47;1.40;;;;;;;;;;4899316;29;20048;-47
2021/08/06 14:24:03;;;;;;;5.22;1.30;;;;;;;;;;4896454;29;20104;-45
2021/08/06 14:26:30;;;;;;;2.55;1.30;;;;;;;;;;4880784;29;20535;-45
2021/08/06 14:28:57;;;;;;;2.35;1.30;;;;;;;;;;4880648;29;20466;-51
2021/08/06 14:31:24;;;;;;;4.20;1.33;;;;;;;;;;4880816;29;20049;-47
2021/08/06 14:33:51;;;;;;;4.82;1.63;;;;;;;;;;4880084;29;20033;-43
2021/08/06 14:36:19;;;;;;;3.08;1.48;;;;;;;;;;4879859;29;20045;-47
2021/08/06 14:38:46;;;;;;;3.90;1.10;;;;;;;;;;4880533;29;20048;-46
2021/08/06 14:41:13;;;;;;;2.13;1.40;;;;;;;;;;4880527;29;20061;-45
2021/08/06 14:43:40;;;;;;;4.93;1.70;;;;;;;;;;4896616;29;20132;-44
2021/08/06 14:46:07;;;;;;;2.30;1.20;;;;;;;;;;4893532;29;20052;-43
2021/08/06 14:48:34;;;;;;;4.03;1.10;;;;;;;;;;4880117;29;20078;-43
2021/08/06 14:51:01;;;;;;;2.80;1.52;;;;;;;;;;4879972;29;20128;-42
2021/08/06 14:53:28;;;;;;;6.25;1.42;;;;;;;;;;4880117;29;20052;-43
2021/08/06 14:55:55;;;;;;;5.25;1.50;;;;;;;;;;4879982;29;20416;-45